KTTN/TTN METAR and TAF weather

Enter ICAO airport designator
Station Type Date Time Source
KTTN METAR 2019/06/18 16:53 UTC NOAA

KTTN 181653Z 16006KT 8SM BKN016 OVC024 24/22 A2989 RMK AO2 LTG DSNT NW SLP116 T02440217


Station Type Date Time Source
KTTN Decoded METAR 2019/06/18 16:53 UTC NOAA

TRENTON MERCER COUNTY AIRPORT , NJ, United States (KTTN) 40-17N 074-49W 59M
Jun 18, 2019 - 12:53 PM EDT / 2019.06.18 1653 UTC
Wind: from the SSE (160 degrees) at 7 MPH (6 KT):0
Visibility: 8 mile(s):0
Sky conditions: overcast
Weather: Lightning observed
Temperature: 75.9 F (24.4 C)
Dew Point: 71.1 F (21.7 C)
Relative Humidity: 84%
Pressure (altimeter): 29.89 in. Hg (1012 hPa)
ob: KTTN 181653Z 16006KT 8SM BKN016 OVC024 24/22 A2989 RMK AO2 LTG DSNT NW SLP116 T02440217
cycle: 17

Station Type Date Time Source
KTTN TAF 2019/06/18 18:33 UTC NOAA

TAF KTTN 181730Z 1818/1918 VRB03KT 6SM SHRA BR VCTS BKN015CB BKN025
FM181900 30005KT P6SM BKN025 BKN050
TEMPO 1820/1823 2SM TSRA OVC009CB
FM182300 02006KT 6SM BR BKN015
FM190300 VRB03KT 3SM SHRA VCTS BKN008CB
FM190700 VRB02KT 2SM SHRA BR BKN003
FM191500 18003KT 6SM SHRA BR OVC015

Example: see airport list